Time;durP1;ratioP1;P1;durP2;ratioP2;P2;SDS_P1;SDS_P2;PMS_P1;PMS_P2;Temp;Humidity;BMP_temperature;BMP_pressure;BME280_temperature;BME280_humidity;BME280_pressure;Samples;Min_cycle;Max_cycle;Signal;HPM_P1;HPM_P2
2022/10/26 00:01:20;;;;;;;18.60;5.53;;;;;;;18.19;92.26;101344.66;5032673;28;20049;-80
2022/10/26 00:03:48;;;;;;;12.75;6.28;;;;;;;18.15;92.83;101335.34;5030489;28;20064;-80
2022/10/26 00:06:19;;;;;;;13.27;5.75;;;;;;;18.08;92.51;101333.00;5034317;28;20052;-81
2022/10/26 00:08:47;;;;;;;11.43;7.05;;;;;;;17.96;93.33;101333.53;5034306;28;20401;-81
2022/10/26 00:11:16;;;;;;;10.55;5.60;;;;;;;17.95;92.90;101331.88;5032265;28;20056;-81
2022/10/26 00:13:45;;;;;;;11.90;5.93;;;;;;;17.92;93.70;101326.97;5026291;28;20042;-81
2022/10/26 00:16:19;;;;;;;9.80;5.60;;;;;;;17.96;93.54;101333.53;5034903;28;20045;-81
2022/10/26 00:18:47;;;;;;;17.60;5.60;;;;;;;17.97;93.42;101345.41;5035069;28;20053;-81
2022/10/26 00:21:15;;;;;;;11.40;5.63;;;;;;;18.00;93.06;101350.34;5034306;28;20068;-80
2022/10/26 00:23:44;;;;;;;9.55;5.38;;;;;;;17.96;93.08;101358.47;5034416;28;20052;-81
2022/10/26 00:26:12;;;;;;;11.30;5.72;;;;;;;17.92;93.02;101357.44;5037090;28;20061;-81
2022/10/26 00:28:41;;;;;;;9.95;5.65;;;;;;;17.78;94.18;101364.97;5037902;28;20053;-81
2022/10/26 00:31:12;;;;;;;10.60;5.43;;;;;;;17.64;94.70;101363.00;5029561;28;20046;-81
2022/10/26 00:33:40;;;;;;;11.65;5.03;;;;;;;17.69;94.39;101368.44;5026469;28;20045;-81
2022/10/26 00:36:10;;;;;;;10.75;5.43;;;;;;;17.73;94.33;101372.25;5034700;28;20128;-81
2022/10/26 00:38:44;;;;;;;10.23;5.47;;;;;;;17.72;94.58;101362.31;5034644;28;20061;-81
2022/10/26 00:41:15;;;;;;;10.75;5.78;;;;;;;17.71;94.42;101363.41;5034264;28;20049;-80
2022/10/26 00:43:43;;;;;;;9.40;5.43;;;;;;;17.63;95.23;101364.16;5022966;28;20046;-80
2022/10/26 00:46:15;;;;;;;15.68;6.63;;;;;;;17.64;95.30;101365.78;5028549;28;20477;-81
2022/10/26 00:48:52;;;;;;;12.00;6.15;;;;;;;17.59;95.45;101357.59;5032957;28;20050;-81
2022/10/26 00:51:51;;;;;;;15.40;6.30;;;;;;;17.55;95.43;101364.88;5033584;28;20045;-80
2022/10/26 00:54:20;;;;;;;12.60;5.75;;;;;;;17.52;95.66;101359.94;5011289;28;20041;-81
2022/10/26 00:56:51;;;;;;;13.90;5.97;;;;;;;17.52;95.28;101363.53;5032692;28;20084;-81
2022/10/26 00:59:20;;;;;;;15.05;5.80;;;;;;;17.50;95.35;101351.94;5034134;28;20049;-81
2022/10/26 01:01:50;;;;;;;14.45;5.78;;;;;;;17.46;95.56;101343.44;5030460;28;20045;-81
2022/10/26 01:04:18;;;;;;;15.93;5.70;;;;;;;17.46;95.78;101340.69;5031159;28;20045;-81
2022/10/26 01:06:47;;;;;;;8.10;4.55;;;;;;;17.43;95.91;101337.72;5034864;28;20053;-81
2022/10/26 01:09:16;;;;;;;11.90;4.93;;;;;;;17.36;96.30;101334.56;5017456;28;20076;-80
2022/10/26 01:11:45;;;;;;;9.77;4.45;;;;;;;17.39;95.83;101329.22;5031743;28;20808;-80
2022/10/26 01:14:18;;;;;;;6.55;5.00;;;;;;;17.39;96.03;101326.44;5032590;28;20058;-80
2022/10/26 01:16:58;;;;;;;7.93;4.70;;;;;;;17.26;96.91;101333.63;5035739;28;20050;-80
2022/10/26 01:20:03;;;;;;;9.32;5.25;;;;;;;17.36;96.37;101321.53;5034446;28;20061;-80
2022/10/26 01:22:36;;;;;;;14.15;5.38;;;;;;;17.34;96.56;101312.72;5027683;28;20050;-80
2022/10/26 01:25:49;;;;;;;10.45;5.18;;;;;;;17.19;97.13;101300.84;5030327;28;20497;-80
2022/10/26 01:28:29;;;;;;;11.15;6.00;;;;;;;17.25;96.88;101303.53;5019820;28;20053;-80
2022/10/26 01:31:00;;;;;;;11.05;5.78;;;;;;;17.27;96.72;101301.25;5033123;28;20480;-80
2022/10/26 01:33:43;;;;;;;8.25;5.00;;;;;;;17.28;96.80;101313.94;5031835;28;20050;-80
2022/10/26 01:36:50;;;;;;;10.10;5.32;;;;;;;17.23;97.16;101311.28;5022240;28;20045;-81
2022/10/26 01:39:27;;;;;;;11.32;6.30;;;;;;;17.28;96.27;101302.88;5033614;28;20052;-80
2022/10/26 01:41:59;;;;;;;12.32;5.53;;;;;;;17.13;96.67;101302.09;5031886;28;20417;-80
2022/10/26 01:44:40;;;;;;;13.35;6.05;;;;;;;17.13;97.13;101301.25;5031109;28;20488;-80
2022/10/26 01:47:11;;;;;;;11.80;5.60;;;;;;;17.05;96.60;101311.06;5032354;28;20820;-80
2022/10/26 01:49:44;;;;;;;15.13;5.78;;;;;;;17.03;97.21;101313.34;5024263;28;20053;-81
2022/10/26 01:52:12;;;;;;;10.90;5.20;;;;;;;16.93;97.94;101306.84;5032051;28;20053;-80
2022/10/26 01:54:39;;;;;;;10.88;6.20;;;;;;;16.96;98.10;101304.59;5028433;28;20053;-81
2022/10/26 01:57:12;;;;;;;11.07;5.60;;;;;;;16.95;97.56;101316.78;5031399;28;20045;-81
2022/10/26 01:59:43;;;;;;;11.20;5.80;;;;;;;16.93;97.88;101326.19;5032491;28;20488;-80
2022/10/26 02:02:36;;;;;;;9.35;5.25;;;;;;;16.93;97.73;101319.84;5026117;28;20057;-80
2022/10/26 02:05:06;;;;;;;8.43;5.45;;;;;;;16.95;97.83;101316.78;5023302;28;20053;-81
2022/10/26 02:07:52;;;;;;;9.95;5.05;;;;;;;16.92;97.08;101315.47;5032492;28;20041;-81
2022/10/26 02:10:29;;;;;;;12.73;6.18;;;;;;;16.84;97.68;101300.38;5032138;28;20068;-81
2022/10/26 02:13:03;;;;;;;9.48;6.35;;;;;;;16.84;98.15;101297.63;5026454;28;20072;-80
2022/10/26 02:15:43;;;;;;;;;;;;;;;16.89;97.93;101303.06;5025916;28;20049;-80
2022/10/26 02:18:41;;;;;;;9.63;5.00;;;;;;;16.88;97.91;101303.38;5032374;28;19921;-81
2022/10/26 02:21:14;;;;;;;11.27;5.65;;;;;;;16.81;97.93;101300.97;5031915;28;20049;-81
2022/10/26 02:23:46;;;;;;;8.23;4.55;;;;;;;16.77;97.70;101306.31;5030677;28;20064;-80
2022/10/26 02:26:18;;;;;;;12.93;5.18;;;;;;;16.76;97.77;101296.38;5031434;28;20052;-81
2022/10/26 02:28:49;;;;;;;10.45;5.10;;;;;;;16.68;97.96;101299.03;5032246;28;20060;-81
2022/10/26 02:31:19;;;;;;;9.80;4.95;;;;;;;16.71;97.41;101301.19;5031686;28;20053;-81
2022/10/26 02:33:50;;;;;;;8.15;5.03;;;;;;;16.72;97.13;101302.81;5025344;28;20575;-81
2022/10/26 02:36:26;;;;;;;8.82;4.35;;;;;;;16.68;97.76;101301.78;5031991;28;20069;-81
2022/10/26 02:38:57;;;;;;;8.27;4.93;;;;;;;16.64;98.07;101302.41;5032001;28;20038;-80
2022/10/26 02:41:27;;;;;;;7.35;4.55;;;;;;;16.71;97.85;101303.97;5030366;28;20049;-80
2022/10/26 02:44:29;;;;;;;12.52;5.63;;;;;;;16.63;97.79;101305.47;5030553;28;20052;-81
2022/10/26 02:46:57;;;;;;;8.23;4.82;;;;;;;16.62;97.69;101307.41;5020200;28;20057;-81
2022/10/26 02:49:26;;;;;;;9.02;5.07;;;;;;;16.58;97.72;101305.56;5031605;28;20050;-80
2022/10/26 02:52:40;;;;;;;8.90;4.50;;;;;;;16.56;97.47;101305.84;5025381;28;20053;-80
2022/10/26 02:55:14;;;;;;;9.77;4.68;;;;;;;16.61;98.30;101302.16;4979461;28;20057;-81
2022/10/26 02:57:48;;;;;;;8.90;5.00;;;;;;;16.63;98.41;101306.28;5032012;28;20033;-81
2022/10/26 03:00:18;;;;;;;9.38;5.70;;;;;;;16.76;98.04;101301.91;5031028;28;20504;-80
2022/10/26 03:02:52;;;;;;;13.10;6.55;;;;;;;16.75;98.49;101302.19;5023350;28;20034;-80
2022/10/26 03:05:25;;;;;;;9.18;4.95;;;;;;;16.78;98.28;101296.09;5030903;28;20493;-80
2022/10/26 03:07:54;;;;;;;10.85;5.50;;;;;;;16.80;98.23;101299.34;5031641;28;20038;-80
2022/10/26 03:10:22;;;;;;;10.68;4.97;;;;;;;16.83;98.13;101297.91;5031675;28;20045;-80
2022/10/26 03:12:50;;;;;;;9.90;5.38;;;;;;;16.75;97.68;101297.50;5027302;28;20392;-81
2022/10/26 03:15:19;;;;;;;9.93;5.22;;;;;;;16.83;97.40;101308.97;5029468;28;20594;-80
2022/10/26 03:17:47;;;;;;;12.38;5.63;;;;;;;16.75;98.04;101313.25;5031594;28;20045;-81
2022/10/26 03:20:16;;;;;;;9.93;5.45;;;;;;;16.74;97.65;101311.63;5031213;28;20049;-80
2022/10/26 03:22:46;;;;;;;10.02;6.20;;;;;;;16.72;97.45;101306.41;5028849;28;20061;-81
2022/10/26 03:25:17;;;;;;;9.70;5.45;;;;;;;16.61;98.05;101311.28;5022666;28;20056;-81
2022/10/26 03:27:46;;;;;;;10.30;4.85;;;;;;;16.68;98.29;101310.91;5031117;28;20045;-80
2022/10/26 03:30:14;;;;;;;9.38;5.35;;;;;;;16.72;98.57;101316.66;5029945;28;20057;-80
2022/10/26 03:32:42;;;;;;;9.80;6.05;;;;;;;16.78;98.40;101319.00;5024607;28;20412;-80
2022/10/26 03:35:10;;;;;;;12.68;5.90;;;;;;;16.81;97.99;101317.56;5023331;28;20067;-81
2022/10/26 03:37:37;;;;;;;11.88;6.22;;;;;;;16.92;97.33;101307.97;5028123;28;20493;-81
2022/10/26 03:40:06;;;;;;;12.85;6.03;;;;;;;16.89;97.78;101307.75;5014464;28;20065;-81
2022/10/26 03:42:37;;;;;;;12.57;5.65;;;;;;;17.00;97.10;101297.31;5030745;28;20041;-80
2022/10/26 03:45:07;;;;;;;10.35;6.32;;;;;;;17.00;97.01;101291.78;5030068;28;20049;-81
2022/10/26 03:47:48;;;;;;;13.13;6.18;;;;;;;16.96;97.36;101294.34;5030789;28;20389;-80
2022/10/26 03:50:18;;;;;;;12.32;6.13;;;;;;;16.90;97.49;101304.69;5031244;28;20396;-81
2022/10/26 03:52:48;;;;;;;15.82;5.70;;;;;;;16.91;97.45;101306.31;5030750;28;21683;-81
2022/10/26 03:55:16;;;;;;;10.77;5.25;;;;;;;16.93;96.73;101309.59;5030405;28;20037;-80
2022/10/26 03:57:44;;;;;;;8.75;5.45;;;;;;;16.83;97.57;101303.44;5030854;28;20049;-81
2022/10/26 04:00:15;;;;;;;11.75;6.28;;;;;;;16.84;97.38;101305.09;5034601;28;20077;-81
2022/10/26 04:02:46;;;;;;;9.05;5.40;;;;;;;16.86;97.21;101303.66;5033774;28;20060;-81
2022/10/26 04:05:15;;;;;;;12.45;5.15;;;;;;;16.82;97.68;101304.59;5033681;28;20049;-80
2022/10/26 04:07:43;;;;;;;14.57;5.95;;;;;;;16.80;97.64;101296.59;5034693;28;20034;-80
2022/10/26 04:10:11;;;;;;;9.70;4.90;;;;;;;16.99;96.92;101307.56;5034961;28;20049;-80
2022/10/26 04:12:39;;;;;;;9.02;5.13;;;;;;;17.13;95.43;101301.25;5033430;28;20053;-80
2022/10/26 04:15:07;;;;;;;11.15;5.32;;;;;;;17.03;95.90;101303.09;5030433;28;20045;-80
2022/10/26 04:17:35;;;;;;;11.55;5.88;;;;;;;17.21;95.20;101311.63;5030705;28;20057;-81
2022/10/26 04:20:03;;;;;;;12.88;5.43;;;;;;;17.21;95.26;101306.09;5034275;28;20045;-80
2022/10/26 04:22:31;;;;;;;16.73;5.32;;;;;;;17.15;95.49;101310.88;5032892;28;20049;-81
2022/10/26 04:24:59;;;;;;;8.32;5.15;;;;;;;17.22;95.49;101317.94;5032470;28;20041;-81
2022/10/26 04:27:26;;;;;;;14.77;5.60;;;;;;;17.20;95.43;101309.94;5034405;28;20054;-81
2022/10/26 04:29:54;;;;;;;13.32;5.78;;;;;;;17.21;95.31;101316.31;5031246;28;20045;-80
2022/10/26 04:32:22;;;;;;;7.57;5.00;;;;;;;17.26;94.59;101316.22;5023211;28;20054;-81
2022/10/26 04:34:53;;;;;;;9.25;4.88;;;;;;;17.26;94.60;101321.75;5032660;28;20049;-81
2022/10/26 04:37:20;;;;;;;13.40;5.35;;;;;;;17.35;94.00;101327.38;5034032;28;20053;-81
2022/10/26 04:39:48;;;;;;;14.27;5.65;;;;;;;17.29;94.40;101326.66;5033854;28;20064;-80
2022/10/26 04:42:16;;;;;;;10.88;5.40;;;;;;;17.16;95.54;101322.78;5032445;28;20052;-81
2022/10/26 04:44:44;;;;;;;10.32;5.45;;;;;;;17.31;94.88;101318.88;5033021;28;20056;-81
2022/10/26 04:47:12;;;;;;;8.88;4.25;;;;;;;17.38;94.04;101330.34;5033194;28;20404;-81
2022/10/26 04:49:40;;;;;;;10.93;5.53;;;;;;;17.37;93.94;101328.72;5032312;28;20049;-80
2022/10/26 04:52:08;;;;;;;9.25;4.95;;;;;;;17.41;93.68;101321.41;5036782;28;20048;-80
2022/10/26 04:54:36;;;;;;;8.80;4.60;;;;;;;17.42;93.79;101323.06;5029799;28;20049;-79
2022/10/26 04:57:04;;;;;;;13.10;5.40;;;;;;;17.95;92.29;101309.72;5015729;28;20052;-79
2022/10/26 04:59:32;;;;;;;13.23;4.90;;;;;;;18.26;89.85;101316.53;5034085;28;20041;-79
2022/10/26 05:02:00;;;;;;;7.22;4.97;;;;;;;18.43;88.07;101320.56;5031289;28;20037;-79
2022/10/26 05:04:28;;;;;;;11.40;5.18;;;;;;;18.27;87.76;101305.13;5029560;28;20460;-78
2022/10/26 05:06:56;;;;;;;7.80;5.03;;;;;;;18.66;86.75;101319.41;5026371;28;20056;-78
2022/10/26 05:09:24;;;;;;;7.43;4.55;;;;;;;18.71;86.23;101312.09;5032507;28;20056;-77
2022/10/26 05:11:52;;;;;;;9.60;5.05;;;;;;;18.89;85.08;101307.44;5023765;28;20493;-78
2022/10/26 05:14:20;;;;;;;10.23;5.25;;;;;;;18.97;84.50;101309.44;5030499;28;20053;-77
2022/10/26 05:16:50;;;;;;;9.80;5.18;;;;;;;18.95;84.21;101303.41;5030645;28;20049;-78
2022/10/26 05:19:18;;;;;;;9.77;5.03;;;;;;;18.92;84.38;101306.81;5029483;28;20049;-77
2022/10/26 05:21:46;;;;;;;10.23;5.18;;;;;;;18.90;84.39;101292.44;5029392;28;20049;-77
2022/10/26 05:24:14;;;;;;;8.43;4.40;;;;;;;18.84;84.45;101288.16;5032201;28;20041;-77
2022/10/26 05:26:43;;;;;;;11.20;5.22;;;;;;;18.80;84.92;101288.81;5019717;28;20042;-78
2022/10/26 05:29:11;;;;;;;13.60;5.75;;;;;;;18.75;85.10;101291.72;5033390;28;20038;-77
2022/10/26 05:31:39;;;;;;;10.50;5.43;;;;;;;18.70;85.25;101289.09;5041778;28;20048;-78
2022/10/26 05:34:06;;;;;;;9.10;4.78;;;;;;;18.45;86.36;101288.63;5029084;28;20049;-78
2022/10/26 05:36:34;;;;;;;11.23;5.43;;;;;;;18.27;87.22;101282.97;5027745;28;20401;-78
2022/10/26 05:39:02;;;;;;;14.98;5.60;;;;;;;18.16;88.12;101286.31;5020036;28;20489;-78
2022/10/26 05:41:30;;;;;;;8.32;5.20;;;;;;;18.48;86.59;101289.94;5027111;28;20049;-76
2022/10/26 05:43:58;;;;;;;12.35;5.32;;;;;;;18.45;86.41;101296.13;5029096;28;20489;-76
2022/10/26 05:46:26;;;;;;;9.00;5.05;;;;;;;18.21;87.47;101300.03;5031829;28;20049;-82
2022/10/26 05:48:54;;;;;;;10.88;5.57;;;;;;;17.81;89.41;101303.44;5033027;28;20049;-82
2022/10/26 05:51:21;;;;;;;10.77;5.60;;;;;;;17.64;90.27;101315.97;5033305;28;20049;-82
2022/10/26 05:53:53;;;;;;;11.63;4.95;;;;;;;17.43;92.01;101316.41;5032735;28;20579;-82
2022/10/26 05:56:36;;;;;;;11.75;6.03;;;;;;;17.25;93.37;101317.34;5033452;28;20052;-82
2022/10/26 05:59:10;;;;;;;11.80;6.00;;;;;;;17.17;94.00;101319.69;5032833;28;20089;-82
2022/10/26 06:01:44;;;;;;;13.48;5.13;;;;;;;17.13;94.27;101329.75;5032618;28;20057;-82
2022/10/26 06:04:34;;;;;;;10.68;5.32;;;;;;;17.15;95.55;101341.31;5032256;28;20049;-82
2022/10/26 06:07:02;;;;;;;14.00;6.03;;;;;;;17.16;95.33;101334.63;5023235;28;20096;-82
2022/10/26 06:09:30;;;;;;;15.30;6.13;;;;;;;17.22;95.29;101340.91;5032720;28;20064;-82
2022/10/26 06:12:00;;;;;;;15.20;6.70;;;;;;;17.34;95.09;101337.63;5032125;28;20056;-81
2022/10/26 06:14:28;;;;;;;13.65;6.63;;;;;;;17.36;94.57;101335.38;5032686;28;20053;-79
2022/10/26 06:17:08;;;;;;;12.25;5.57;;;;;;;17.44;94.30;101331.88;5032253;28;20505;-80
2022/10/26 06:19:51;;;;;;;26.65;9.77;;;;;;;17.43;94.48;101344.06;5032017;28;20042;-83
2022/10/26 06:22:31;;;;;;;25.50;8.07;;;;;;;17.59;93.33;101352.03;5032405;28;20037;-82
2022/10/26 06:25:24;;;;;;;16.92;7.40;;;;;;;17.69;92.80;101356.56;5032472;28;20124;-82
2022/10/26 06:28:16;;;;;;;20.80;7.88;;;;;;;17.71;93.05;101360.63;5030710;28;20424;-79
2022/10/26 06:30:44;;;;;;;24.02;7.47;;;;;;;17.76;92.69;101365.28;5031927;28;20385;-80
2022/10/26 06:33:14;;;;;;;18.98;9.07;;;;;;;17.94;92.15;101365.44;5031632;28;20061;-80
2022/10/26 06:36:01;;;;;;;17.33;7.43;;;;;;;17.93;91.96;101370.16;5032411;28;20399;-80
2022/10/26 06:38:33;;;;;;;22.65;7.18;;;;;;;18.03;91.40;101371.88;5031822;28;20057;-79
2022/10/26 06:41:01;;;;;;;14.50;7.28;;;;;;;18.13;91.26;101373.59;5032017;28;20053;-82
2022/10/26 06:43:34;;;;;;;13.35;6.53;;;;;;;18.13;90.63;101381.91;5031828;28;20053;-82
2022/10/26 06:46:21;;;;;;;15.67;7.70;;;;;;;18.29;90.78;101385.19;5029564;28;20052;-80
2022/10/26 06:48:55;;;;;;;14.60;6.68;;;;;;;18.23;90.22;101381.69;5031274;28;20052;-79
2022/10/26 06:51:24;;;;;;;19.75;7.20;;;;;;;18.34;89.73;101387.78;5030751;28;20049;-80
2022/10/26 06:54:13;;;;;;;10.85;5.93;;;;;;;18.36;90.28;101390.25;5031775;28;20054;-81
2022/10/26 06:56:42;;;;;;;15.10;6.65;;;;;;;18.46;89.32;101390.03;5032304;28;20053;-81
2022/10/26 06:59:22;;;;;;;11.93;6.05;;;;;;;18.65;88.32;101380.69;5031804;28;20060;-80
2022/10/26 07:01:50;;;;;;;14.65;6.07;;;;;;;18.59;88.24;101387.50;5031887;28;20053;-80
2022/10/26 07:04:18;;;;;;;12.73;6.18;;;;;;;18.59;88.51;101381.97;5031532;28;20050;-81
2022/10/26 07:06:46;;;;;;;14.93;5.97;;;;;;;18.72;87.38;101389.38;5030575;28;20053;-82
2022/10/26 07:09:14;;;;;;;16.17;7.25;;;;;;;18.94;86.74;101399.66;5031784;28;20053;-80
2022/10/26 07:11:41;;;;;;;15.38;6.60;;;;;;;18.92;85.93;101384.47;5031421;28;20057;-82
2022/10/26 07:14:09;;;;;;;11.10;6.15;;;;;;;18.88;86.14;101389.00;5031825;28;20049;-81
2022/10/26 07:16:37;;;;;;;11.40;6.07;;;;;;;19.01;85.53;101396.41;5031364;28;20046;-81
2022/10/26 07:19:05;;;;;;;10.10;5.53;;;;;;;18.91;85.77;101391.13;5031811;28;20038;-81
2022/10/26 07:21:33;;;;;;;10.18;5.82;;;;;;;19.07;85.07;101399.91;5031632;28;20045;-81
2022/10/26 07:24:01;;;;;;;11.77;5.45;;;;;;;19.00;85.35;101400.34;5031707;28;20412;-81
2022/10/26 07:26:29;;;;;;;12.48;6.57;;;;;;;19.10;85.64;101396.50;5017766;28;20050;-81
2022/10/26 07:28:56;;;;;;;13.52;6.00;;;;;;;19.25;84.96;101395.25;5031687;28;20049;-80
2022/10/26 07:31:25;;;;;;;16.38;6.28;;;;;;;19.39;84.25;101405.44;5031526;28;20053;-79
2022/10/26 07:33:53;;;;;;;12.45;6.45;;;;;;;19.42;84.00;101396.47;5033566;28;20045;-79
2022/10/26 07:36:21;;;;;;;13.45;7.25;;;;;;;19.34;83.85;101398.91;5035576;28;20047;-79
2022/10/26 07:38:52;;;;;;;17.33;6.30;;;;;;;19.52;84.84;101401.75;5035343;28;20136;-80
2022/10/26 07:41:20;;;;;;;17.85;7.20;;;;;;;19.63;83.85;101401.44;5033974;28;20508;-79
2022/10/26 07:43:49;;;;;;;13.07;7.10;;;;;;;19.65;83.09;101416.63;5035381;28;20045;-85
2022/10/26 07:46:17;;;;;;;11.70;6.32;;;;;;;19.65;83.08;101416.63;5035217;28;20080;-86
2022/10/26 07:48:45;;;;;;;12.55;7.13;;;;;;;19.75;82.28;101423.88;5035192;28;20045;-86
2022/10/26 07:51:13;;;;;;;15.55;7.28;;;;;;;19.70;83.21;101421.25;5035344;28;20050;-86
2022/10/26 07:53:41;;;;;;;15.60;7.43;;;;;;;19.76;82.85;101431.06;5034873;28;20522;-86
2022/10/26 07:56:10;;;;;;;14.05;7.38;;;;;;;19.88;82.40;101425.69;5035125;28;20067;-85
2022/10/26 07:58:38;;;;;;;14.98;7.80;;;;;;;20.04;81.68;101430.00;5034795;28;20484;-85
2022/10/26 08:01:11;;;;;;;13.02;6.32;;;;;;;20.32;80.30;101427.75;5020991;28;20048;-85
2022/10/26 08:03:39;;;;;;;10.90;6.25;;;;;;;20.36;80.10;101433.47;5034854;28;20049;-85
2022/10/26 08:06:09;;;;;;;15.38;6.78;;;;;;;20.26;79.96;101431.81;5034835;28;20034;-85
2022/10/26 08:08:37;;;;;;;17.52;7.35;;;;;;;20.06;81.46;101434.09;5034995;28;20045;-85
2022/10/26 08:11:05;;;;;;;15.15;7.00;;;;;;;20.25;80.17;101432.97;5034251;28;20386;-85
2022/10/26 08:13:34;;;;;;;17.27;8.15;;;;;;;20.04;80.73;101427.22;5034539;28;20053;-82
2022/10/26 08:16:04;;;;;;;14.20;7.47;;;;;;;20.20;80.00;101431.19;5034841;28;20049;-80
2022/10/26 08:18:32;;;;;;;21.80;8.38;;;;;;;20.44;79.60;101435.44;5034467;28;20045;-85
2022/10/26 08:21:05;;;;;;;22.33;9.38;;;;;;;20.18;80.23;101438.19;5034043;28;20049;-78
2022/10/26 08:23:39;;;;;;;22.17;8.65;;;;;;;20.13;81.12;101442.75;5034505;28;20404;-78
2022/10/26 08:26:10;;;;;;;18.15;7.95;;;;;;;20.34;79.76;101442.13;5034377;28;20037;-77
2022/10/26 08:28:39;;;;;;;17.23;8.25;;;;;;;20.58;79.82;101434.44;5034442;28;20057;-81
2022/10/26 08:31:06;;;;;;;20.70;8.35;;;;;;;20.29;80.08;101436.75;5033827;28;20046;-81
2022/10/26 08:33:34;;;;;;;17.30;8.10;;;;;;;20.18;80.76;101444.56;5034259;28;20056;-81
2022/10/26 08:36:04;;;;;;;21.83;8.57;;;;;;;20.31;80.97;101450.28;5033922;28;20060;-82
2022/10/26 08:38:35;;;;;;;19.58;9.13;;;;;;;19.96;80.59;101462.16;5019628;28;20069;-81
2022/10/26 08:41:10;;;;;;;15.50;9.15;;;;;;;20.47;80.34;101456.22;5032948;28;20041;-81
2022/10/26 08:43:55;;;;;;;28.65;10.10;;;;;;;21.03;77.69;101456.38;5033983;28;20045;-84
2022/10/26 08:46:32;;;;;;;17.23;8.43;;;;;;;21.05;77.09;101456.00;5032496;28;20049;-75
2022/10/26 08:49:12;;;;;;;20.80;8.82;;;;;;;21.06;76.98;101463.19;5034083;28;20042;-75
2022/10/26 08:51:41;;;;;;;19.77;8.65;;;;;;;21.04;77.46;101468.28;5033632;28;20501;-78
2022/10/26 08:54:17;;;;;;;15.52;7.60;;;;;;;20.56;78.59;101470.13;5019922;28;20053;-78
2022/10/26 08:56:51;;;;;;;17.38;8.23;;;;;;;20.68;78.68;101462.72;5020059;28;20050;-77
2022/10/26 08:59:40;;;;;;;16.50;8.10;;;;;;;21.31;77.46;101455.13;5033902;28;20369;-78
2022/10/26 09:02:13;;;;;;;17.45;7.90;;;;;;;21.55;75.46;101464.88;5022515;28;20041;-78
2022/10/26 09:04:41;;;;;;;24.00;8.27;;;;;;;21.56;75.48;101463.72;5033548;28;20049;-79
2022/10/26 09:07:33;;;;;;;18.35;8.98;;;;;;;21.98;73.48;101468.59;5033662;28;20052;-79
2022/10/26 09:10:27;;;;;;;12.85;7.15;;;;;;;21.95;73.56;101461.75;5033573;28;20049;-78
2022/10/26 09:13:32;;;;;;;16.33;7.57;;;;;;;21.43;74.55;101474.75;5033592;28;20488;-78
2022/10/26 09:16:31;;;;;;;18.88;7.80;;;;;;;21.71;74.83;101474.31;5024099;28;20058;-79
2022/10/26 09:19:19;;;;;;;13.70;7.72;;;;;;;22.31;72.39;101470.72;5020051;28;20041;-79
2022/10/26 09:22:06;;;;;;;15.57;7.35;;;;;;;21.91;72.26;101463.59;5032747;28;20049;-78
2022/10/26 09:24:42;;;;;;;15.50;7.53;;;;;;;22.11;71.45;101458.38;5033125;28;20515;-78
2022/10/26 09:27:39;;;;;;;13.13;7.65;;;;;;;22.42;70.97;101463.56;5032910;28;20053;-78
2022/10/26 09:30:19;;;;;;;14.40;6.95;;;;;;;22.60;70.28;101468.22;5033331;28;20050;-78
2022/10/26 09:33:20;;;;;;;15.23;7.75;;;;;;;22.67;69.92;101469.28;5033386;28;20084;-76
2022/10/26 09:35:51;;;;;;;12.02;7.38;;;;;;;22.14;71.99;101463.28;5033365;28;20037;-76
2022/10/26 09:38:27;;;;;;;15.55;7.90;;;;;;;21.90;72.37;101475.88;5032906;28;20053;-76
2022/10/26 09:40:58;;;;;;;12.70;7.78;;;;;;;21.85;73.14;101473.28;5032754;28;20046;-76
2022/10/26 09:43:37;;;;;;;16.75;7.85;;;;;;;21.51;73.69;101475.03;5032708;28;20049;-77
2022/10/26 09:46:14;;;;;;;13.90;8.13;;;;;;;21.64;75.06;101464.84;5032835;28;20050;-76
2022/10/26 09:48:57;;;;;;;18.25;9.23;;;;;;;21.78;73.41;101468.22;5032313;28;20060;-76
2022/10/26 09:51:28;;;;;;;16.05;7.63;;;;;;;22.19;72.96;101474.22;5033154;28;20054;-76
2022/10/26 09:53:59;;;;;;;17.17;8.35;;;;;;;22.52;70.59;101470.75;5032297;28;20057;-76
2022/10/26 09:56:30;;;;;;;19.15;8.13;;;;;;;22.77;68.92;101479.22;5032161;28;20058;-77
2022/10/26 09:59:04;;;;;;;12.20;7.40;;;;;;;22.86;69.33;101475.53;5033001;28;20049;-76
2022/10/26 10:01:34;;;;;;;18.60;7.97;;;;;;;23.16;68.49;101475.41;5032888;28;20053;-77
2022/10/26 10:04:19;;;;;;;16.75;7.60;;;;;;;22.98;68.71;101472.78;5032643;28;20033;-77
2022/10/26 10:06:49;;;;;;;19.25;8.43;;;;;;;23.08;69.22;101472.34;5032474;28;20045;-76
2022/10/26 10:09:20;;;;;;;14.30;7.82;;;;;;;23.08;67.46;101477.94;5032532;28;20037;-76
2022/10/26 10:11:54;;;;;;;14.20;7.68;;;;;;;23.33;68.22;101471.63;5032518;28;20523;-76
2022/10/26 10:14:27;;;;;;;13.65;7.38;;;;;;;23.14;66.12;101469.34;5032313;28;20054;-76
2022/10/26 10:17:09;;;;;;;15.50;7.90;;;;;;;23.38;65.29;101467.78;5031006;28;20052;-77
2022/10/26 10:19:38;;;;;;;14.85;7.38;;;;;;;23.54;65.51;101468.75;5031779;28;20492;-76
2022/10/26 10:22:15;;;;;;;15.90;7.72;;;;;;;23.48;65.44;101461.75;5032143;28;20117;-76
2022/10/26 10:25:00;;;;;;;16.08;7.60;;;;;;;23.83;64.76;101466.91;5032122;28;20065;-76
2022/10/26 10:27:29;;;;;;;14.85;6.90;;;;;;;23.98;63.18;101464.53;5032155;28;20064;-76
2022/10/26 10:30:12;;;;;;;14.23;7.55;;;;;;;24.09;63.99;101471.31;5032090;28;20392;-76
2022/10/26 10:32:40;;;;;;;16.58;8.00;;;;;;;24.04;65.23;101460.34;5032050;28;20057;-76
2022/10/26 10:35:28;;;;;;;16.00;6.60;;;;;;;23.86;63.34;101457.78;5031487;28;20052;-76
2022/10/26 10:37:56;;;;;;;13.25;7.70;;;;;;;24.22;62.84;101462.91;5031714;28;20492;-75
2022/10/26 10:40:28;;;;;;;13.00;6.57;;;;;;;24.07;62.66;101468.06;5031862;28;20044;-75
2022/10/26 10:43:22;;;;;;;13.52;7.32;;;;;;;23.76;64.61;101466.66;5031608;28;20067;-75
2022/10/26 10:45:53;;;;;;;15.00;6.97;;;;;;;23.38;65.14;101470.59;5029627;28;20045;-75
2022/10/26 10:48:27;;;;;;;13.65;7.47;;;;;;;23.36;64.83;101459.75;5031485;28;20049;-75
2022/10/26 10:51:11;;;;;;;19.55;7.70;;;;;;;23.42;66.68;101460.34;5031469;28;20049;-75
2022/10/26 10:53:54;;;;;;;15.85;8.52;;;;;;;24.04;64.00;101460.34;5031730;28;20041;-75
2022/10/26 10:56:46;;;;;;;17.55;8.45;;;;;;;23.98;62.16;101456.16;5031820;28;20056;-75
2022/10/26 10:59:46;;;;;;;15.93;8.10;;;;;;;24.15;62.94;101455.94;5031582;28;20049;-75
2022/10/26 11:02:35;;;;;;;13.63;7.10;;;;;;;23.64;62.80;101447.13;4998719;28;20060;-75
2022/10/26 11:05:24;;;;;;;12.13;7.10;;;;;;;23.60;63.25;101449.75;5031649;28;20423;-75
2022/10/26 11:08:11;;;;;;;15.07;7.05;;;;;;;24.05;62.26;101449.97;5030992;28;20049;-75
2022/10/26 11:10:50;;;;;;;14.20;7.75;;;;;;;24.35;60.40;101444.94;5031560;28;20053;-75
2022/10/26 11:13:25;;;;;;;14.68;7.90;;;;;;;24.61;59.86;101446.47;5031748;28;20049;-75
2022/10/26 11:15:59;;;;;;;17.65;7.25;;;;;;;25.00;58.60;101442.34;5031503;28;20074;-75
2022/10/26 11:18:39;;;;;;;14.27;7.63;;;;;;;25.14;58.43;101437.16;5031617;28;20060;-75
2022/10/26 11:21:28;;;;;;;13.07;7.53;;;;;;;25.43;55.76;101428.66;5031212;28;20045;-75
2022/10/26 11:24:09;;;;;;;11.57;6.80;;;;;;;25.78;55.03;101430.72;5041045;28;20045;-75
2022/10/26 11:26:56;;;;;;;13.73;7.20;;;;;;;25.27;56.00;101435.06;5027893;28;20053;-75
2022/10/26 11:29:49;;;;;;;15.05;7.32;;;;;;;25.29;56.35;101432.72;5030266;28;20404;-75
2022/10/26 11:32:30;;;;;;;16.03;8.33;;;;;;;25.82;55.20;101420.41;5017075;28;20041;-75
2022/10/26 11:35:11;;;;;;;13.80;7.50;;;;;;;26.16;54.15;101420.75;5031190;28;20341;-75
2022/10/26 11:38:00;;;;;;;15.88;7.80;;;;;;;26.27;53.07;101421.03;5030339;28;20049;-75
2022/10/26 11:41:14;;;;;;;14.32;7.15;;;;;;;26.43;52.18;101420.94;5030078;28;20044;-75
2022/10/26 11:44:58;;;;;;;16.80;6.85;;;;;;;26.19;51.75;101415.59;5028276;28;20050;-76
2022/10/26 11:48:22;;;;;;;10.75;6.32;;;;;;;26.49;52.38;101418.63;5022389;28;20060;-75
2022/10/26 11:51:17;;;;;;;13.70;6.68;;;;;;;26.15;53.17;101421.13;5029224;28;20045;-75
2022/10/26 11:53:48;;;;;;;15.25;6.57;;;;;;;26.29;52.89;101415.03;5029924;28;20436;-75